Time;durP1;ratioP1;P1;durP2;ratioP2;P2;SDS_P1;SDS_P2;PMS_P1;PMS_P2;Temp;Humidity;BMP_temperature;BMP_pressure;BME280_temperature;BME280_humidity;BME280_pressure;Samples;Min_cycle;Max_cycle;Signal;HPM_P1;HPM_P2
2021/10/20 00:01:50;;;;;;;7.43;6.65;;;;;;;14.14;77.82;99505.72;5086090;28;20553;-77
2021/10/20 00:04:17;;;;;;;9.73;6.10;;;;;;;14.22;77.41;99510.56;5086056;28;20531;-76
2021/10/20 00:06:44;;;;;;;10.23;7.38;;;;;;;14.17;77.81;99513.63;5085451;28;20638;-77
2021/10/20 00:09:11;;;;;;;17.33;13.20;;;;;;;14.03;78.58;99516.50;5094306;28;20187;-77
2021/10/20 00:11:37;;;;;;;7.43;6.18;;;;;;;14.01;78.97;99521.16;5089270;28;20290;-75
2021/10/20 00:14:04;;;;;;;7.40;6.70;;;;;;;14.03;78.70;99508.38;5087354;28;20186;-76
2021/10/20 00:16:32;;;;;;;8.68;7.35;;;;;;;13.92;79.54;99509.16;5087603;28;20290;-76
2021/10/20 00:18:59;;;;;;;9.02;8.05;;;;;;;13.95;79.58;99505.34;5093066;28;20273;-76
2021/10/20 00:21:27;;;;;;;9.75;7.22;;;;;;;14.03;79.49;99496.69;5093682;28;20483;-75
2021/10/20 00:23:55;;;;;;;8.57;7.68;;;;;;;14.04;79.61;99502.00;5093107;28;20207;-75
2021/10/20 00:26:22;;;;;;;6.72;6.13;;;;;;;14.25;78.55;99498.66;5085400;28;20194;-75
2021/10/20 00:28:49;;;;;;;7.40;6.70;;;;;;;14.18;79.14;99492.84;5092283;28;20315;-75
2021/10/20 00:31:16;;;;;;;7.70;6.60;;;;;;;14.33;78.25;99499.78;5092482;28;20595;-75
2021/10/20 00:33:44;;;;;;;8.95;6.60;;;;;;;14.16;78.93;99484.81;5077573;28;20284;-75
2021/10/20 00:36:11;;;;;;;8.13;7.28;;;;;;;14.06;79.80;99493.75;5091364;28;20555;-75
2021/10/20 00:38:38;;;;;;;7.00;5.47;;;;;;;14.07;80.05;99490.06;5087738;28;20192;-76
2021/10/20 00:41:05;;;;;;;8.45;6.50;;;;;;;14.05;80.33;99494.72;5090662;28;20191;-76
2021/10/20 00:43:32;;;;;;;7.28;6.50;;;;;;;14.21;79.56;99487.19;5090495;28;20186;-76
2021/10/20 00:45:58;;;;;;;7.72;5.80;;;;;;;14.05;80.47;99484.75;5081633;28;20195;-75
2021/10/20 00:48:25;;;;;;;10.18;7.05;;;;;;;14.10;80.46;99493.41;5089884;28;20207;-76
2021/10/20 00:50:53;;;;;;;7.63;6.82;;;;;;;14.08;80.73;99486.38;5093368;28;20191;-74
2021/10/20 00:53:20;;;;;;;7.53;6.72;;;;;;;14.06;80.93;99489.19;5087064;28;20283;-75
2021/10/20 00:55:47;;;;;;;8.05;6.65;;;;;;;13.94;81.63;99490.09;5092556;28;20213;-77
2021/10/20 00:58:14;;;;;;;9.35;7.47;;;;;;;14.01;81.97;99485.09;5090913;28;20189;-76
2021/10/20 01:00:41;;;;;;;7.78;7.00;;;;;;;14.00;81.73;99478.84;5092338;28;20241;-74
2021/10/20 01:03:08;;;;;;;8.07;7.28;;;;;;;13.99;82.23;99479.78;5089748;28;20592;-75
2021/10/20 01:05:35;;;;;;;8.07;6.85;;;;;;;13.97;82.51;99474.50;5092021;28;20199;-76
2021/10/20 01:08:03;;;;;;;7.40;6.60;;;;;;;13.92;82.76;99479.38;5092356;28;20210;-75
2021/10/20 01:10:30;;;;;;;10.38;7.60;;;;;;;13.88;83.26;99464.34;5089506;28;20709;-75
2021/10/20 01:12:56;;;;;;;8.43;7.43;;;;;;;13.81;83.84;99460.38;5087510;28;20604;-75
2021/10/20 01:15:25;;;;;;;7.90;7.07;;;;;;;13.88;83.71;99458.06;5088998;28;20652;-75
2021/10/20 01:17:53;;;;;;;9.18;7.00;;;;;;;13.79;84.90;99447.94;5093158;28;20187;-74
2021/10/20 01:20:22;;;;;;;9.05;7.03;;;;;;;13.87;84.00;99445.53;5092119;28;20203;-77
2021/10/20 01:22:50;;;;;;;8.25;7.10;;;;;;;13.82;84.62;99435.03;5085220;28;20198;-75
2021/10/20 01:25:17;;;;;;;8.13;6.75;;;;;;;13.85;84.72;99431.25;5091544;28;20538;-76
2021/10/20 01:27:44;;;;;;;8.07;7.25;;;;;;;13.82;85.18;99424.22;5092162;28;20218;-77
2021/10/20 01:30:11;;;;;;;8.35;7.45;;;;;;;13.80;84.98;99423.47;5082963;28;20579;-77
2021/10/20 01:32:39;;;;;;;9.65;7.10;;;;;;;13.87;84.71;99418.47;5091690;28;20199;-75
2021/10/20 01:35:07;;;;;;;7.88;6.90;;;;;;;13.71;85.66;99416.03;5085988;28;20199;-77
2021/10/20 01:37:34;;;;;;;8.90;8.02;;;;;;;13.56;87.32;99428.84;5091466;28;20191;-77
2021/10/20 01:40:02;;;;;;;9.18;7.75;;;;;;;13.63;87.73;99405.75;5091157;28;20190;-76
2021/10/20 01:42:29;;;;;;;11.30;7.47;;;;;;;13.55;87.56;99413.59;5091282;28;20203;-76
2021/10/20 01:44:57;;;;;;;9.60;8.70;;;;;;;13.42;88.92;99402.81;5092614;28;20277;-76
2021/10/20 01:47:24;;;;;;;9.07;8.18;;;;;;;13.51;88.92;99398.56;5085604;28;20229;-76
2021/10/20 01:49:51;;;;;;;9.45;8.45;;;;;;;13.58;88.73;99390.88;5091006;28;20197;-76
2021/10/20 01:52:17;;;;;;;9.60;8.57;;;;;;;13.64;88.19;99391.28;5091721;28;20536;-76
2021/10/20 01:54:44;;;;;;;8.98;8.07;;;;;;;13.59;88.39;99384.47;5088892;28;20203;-76
2021/10/20 01:57:12;;;;;;;8.55;7.75;;;;;;;13.50;89.76;99378.78;5091696;28;20186;-76
2021/10/20 01:59:39;;;;;;;8.90;8.00;;;;;;;13.58;89.57;99377.34;5089946;28;20209;-76
2021/10/20 02:02:15;;;;;;;10.32;8.32;;;;;;;13.58;89.79;99385.44;5092366;28;20700;-76
2021/10/20 02:04:42;;;;;;;10.00;8.18;;;;;;;13.45;90.80;99388.19;5082918;28;20541;-77
2021/10/20 02:07:08;;;;;;;10.50;8.13;;;;;;;13.44;91.03;99381.91;5090239;28;20240;-76
2021/10/20 02:09:35;;;;;;;8.50;7.63;;;;;;;13.50;90.96;99370.66;5084551;28;20193;-76
2021/10/20 02:12:02;;;;;;;10.32;9.13;;;;;;;13.59;90.51;99379.94;5086492;28;20521;-77
2021/10/20 02:14:30;;;;;;;12.32;9.30;;;;;;;13.51;90.60;99368.81;5091879;28;20194;-75
2021/10/20 02:16:56;;;;;;;14.85;11.63;;;;;;;13.48;91.33;99364.50;5086694;28;20563;-76
2021/10/20 02:19:23;;;;;;;10.95;9.05;;;;;;;13.59;90.70;99361.00;5092430;28;20695;-76
2021/10/20 02:21:50;;;;;;;10.43;8.35;;;;;;;13.57;90.75;99354.84;5092329;28;20269;-76
2021/10/20 02:24:17;;;;;;;8.32;7.50;;;;;;;13.72;90.12;99352.81;5089012;28;20190;-75
2021/10/20 02:26:43;;;;;;;9.95;8.05;;;;;;;13.59;91.15;99347.47;5084786;28;20279;-75
2021/10/20 02:29:11;;;;;;;10.02;8.95;;;;;;;13.39;92.44;99345.41;5089980;28;20238;-75
2021/10/20 02:31:45;;;;;;;13.23;8.10;;;;;;;13.37;92.88;99342.78;5076265;28;20232;-77
2021/10/20 02:34:12;;;;;;;10.57;9.30;;;;;;;13.39;93.33;99337.28;5090919;28;20225;-76
2021/10/20 02:36:39;;;;;;;10.85;9.75;;;;;;;13.43;93.34;99331.53;5084233;28;20186;-76
2021/10/20 02:39:05;;;;;;;15.30;9.13;;;;;;;13.43;93.05;99331.53;5083345;28;20190;-76
2021/10/20 02:41:32;;;;;;;10.38;9.25;;;;;;;13.48;93.36;99332.03;5087805;28;20189;-75
2021/10/20 02:43:58;;;;;;;13.50;10.13;;;;;;;13.37;94.25;99326.56;5091798;28;20226;-75
2021/10/20 02:46:25;;;;;;;10.05;9.00;;;;;;;13.40;94.33;99331.72;5088746;28;20202;-76
2021/10/20 02:48:53;;;;;;;11.63;9.40;;;;;;;13.59;93.28;99327.66;5087080;28;20210;-76
2021/10/20 02:51:19;;;;;;;10.48;8.48;;;;;;;13.44;93.81;99325.13;5085847;28;20189;-76
2021/10/20 02:53:46;;;;;;;11.32;9.60;;;;;;;13.43;94.90;99325.22;5084427;28;20194;-75
2021/10/20 02:56:14;;;;;;;10.35;9.32;;;;;;;13.41;95.02;99325.38;5089304;28;20182;-75
2021/10/20 02:58:41;;;;;;;9.95;8.95;;;;;;;13.31;95.99;99324.31;5083048;28;20182;-75
2021/10/20 03:01:08;;;;;;;11.80;9.40;;;;;;;13.58;94.76;99320.53;5083556;28;20203;-75
2021/10/20 03:03:34;;;;;;;11.52;9.65;;;;;;;13.51;94.70;99320.97;5084127;28;20191;-77
2021/10/20 03:06:02;;;;;;;10.43;9.25;;;;;;;13.53;94.78;99310.91;5091192;28;20201;-77
2021/10/20 03:08:30;;;;;;;10.57;9.48;;;;;;;13.54;95.30;99307.25;5074846;28;20227;-76
2021/10/20 03:10:57;;;;;;;11.55;10.02;;;;;;;13.53;95.33;99304.66;5089248;28;20225;-76
2021/10/20 03:13:24;;;;;;;9.63;8.40;;;;;;;13.59;95.68;99295.19;5088091;28;20692;-76
2021/10/20 03:15:50;;;;;;;10.32;9.20;;;;;;;13.60;95.39;99291.53;5093555;28;20191;-76
2021/10/20 03:18:17;;;;;;;10.68;9.68;;;;;;;13.55;95.94;99300.00;5088841;28;20194;-77
2021/10/20 03:20:44;;;;;;;14.55;8.93;;;;;;;13.52;96.37;99295.69;5091660;28;20277;-75
2021/10/20 03:23:11;;;;;;;10.43;9.38;;;;;;;13.41;97.41;99292.03;5088845;28;20201;-75
2021/10/20 03:25:38;;;;;;;11.50;9.30;;;;;;;13.58;96.83;99288.06;5088812;28;20187;-75
2021/10/20 03:28:05;;;;;;;10.60;9.40;;;;;;;13.66;95.80;99291.06;5088778;28;20213;-75
2021/10/20 03:30:31;;;;;;;10.90;9.80;;;;;;;13.70;95.77;99287.13;5087405;28;20230;-76
2021/10/20 03:32:58;;;;;;;9.48;8.48;;;;;;;13.59;96.42;99289.78;5088065;28;20795;-76
2021/10/20 03:35:24;;;;;;;12.35;9.70;;;;;;;13.65;96.37;99287.47;5091486;28;20643;-75
2021/10/20 03:37:51;;;;;;;11.13;9.80;;;;;;;13.72;95.56;99296.00;5094464;28;20355;-76
2021/10/20 03:40:19;;;;;;;11.82;10.48;;;;;;;13.61;96.70;99288.69;5090223;28;20563;-75
2021/10/20 03:42:46;;;;;;;15.60;10.23;;;;;;;13.62;97.12;99282.31;5086851;28;20296;-77
2021/10/20 03:45:12;;;;;;;14.70;10.18;;;;;;;13.49;97.93;99285.06;5092578;28;20194;-75
2021/10/20 03:47:40;;;;;;;12.43;10.43;;;;;;;13.56;98.01;99278.22;5091815;28;20202;-76
2021/10/20 03:50:07;;;;;;;10.40;9.30;;;;;;;13.56;98.55;99289.03;5088085;28;20206;-76
2021/10/20 03:52:34;;;;;;;10.90;9.70;;;;;;;13.57;97.87;99287.22;5090366;28;20193;-76
2021/10/20 03:55:01;;;;;;;11.80;10.55;;;;;;;13.50;98.63;99289.53;5087559;28;20189;-76
2021/10/20 03:57:33;;;;;;;12.45;10.35;;;;;;;13.45;99.33;99288.13;5094414;28;20186;-76
2021/10/20 04:00:00;;;;;;;11.60;10.40;;;;;;;13.35;100.00;99299.63;5086352;28;20273;-76
2021/10/20 04:02:26;;;;;;;13.38;11.00;;;;;;;13.43;100.00;99290.97;5088592;28;20268;-75
2021/10/20 04:04:53;;;;;;;12.25;10.95;;;;;;;13.44;99.82;99298.09;5086123;28;20197;-77
2021/10/20 04:07:20;;;;;;;13.02;11.20;;;;;;;13.46;99.34;99296.13;5092050;28;20552;-76
2021/10/20 04:09:46;;;;;;;12.05;10.07;;;;;;;13.46;99.77;99301.53;5086000;28;20216;-75
2021/10/20 04:12:13;;;;;;;12.88;11.43;;;;;;;13.47;99.81;99313.22;5085726;28;20714;-77
2021/10/20 04:14:41;;;;;;;12.60;11.13;;;;;;;13.64;97.90;99304.69;5093340;28;20193;-77
2021/10/20 04:17:07;;;;;;;12.57;11.27;;;;;;;13.38;99.83;99309.34;5087433;28;20537;-76
2021/10/20 04:19:34;;;;;;;13.50;11.45;;;;;;;13.42;100.00;99302.75;5094008;28;20196;-77
2021/10/20 04:22:01;;;;;;;13.38;11.48;;;;;;;13.41;100.00;99303.72;5093484;28;20276;-76
2021/10/20 04:24:27;;;;;;;13.43;11.40;;;;;;;13.43;100.00;99300.88;5084125;28;20187;-76
2021/10/20 04:26:54;;;;;;;12.05;10.85;;;;;;;13.38;100.00;99295.81;5092591;28;20279;-77
2021/10/20 04:29:20;;;;;;;13.38;11.43;;;;;;;13.38;100.00;99285.00;5090762;28;20227;-76
2021/10/20 04:31:48;;;;;;;13.93;11.90;;;;;;;13.30;100.00;99291.00;5085756;28;20189;-76
2021/10/20 04:34:16;;;;;;;15.15;12.95;;;;;;;13.33;100.00;99287.19;5087253;28;20288;-76
2021/10/20 04:36:42;;;;;;;14.05;11.38;;;;;;;13.36;100.00;99284.25;5085664;28;20202;-76
2021/10/20 04:39:09;;;;;;;13.63;11.80;;;;;;;13.41;100.00;99275.81;5093233;28;20188;-75
2021/10/20 04:41:36;;;;;;;12.40;10.80;;;;;;;13.54;100.00;99280.19;5092285;28;20205;-75
2021/10/20 04:44:02;;;;;;;14.00;9.95;;;;;;;13.51;100.00;99269.59;5087320;28;20535;-76
2021/10/20 04:46:29;;;;;;;12.10;10.90;;;;;;;13.52;100.00;99267.75;5087053;28;20195;-76
2021/10/20 04:48:57;;;;;;;12.98;11.65;;;;;;;13.38;100.00;99257.13;5089839;28;20334;-77
2021/10/20 04:51:23;;;;;;;15.27;11.68;;;;;;;13.62;100.00;99260.66;5089716;28;20191;-76
2021/10/20 04:53:50;;;;;;;14.95;11.57;;;;;;;13.63;99.96;99253.41;5090298;28;20206;-76
2021/10/20 04:56:17;;;;;;;14.10;11.10;;;;;;;13.67;99.89;99255.75;5086721;28;20278;-76
2021/10/20 04:58:43;;;;;;;11.30;10.07;;;;;;;13.53;100.00;99243.28;5085850;28;20190;-77
2021/10/20 05:01:10;;;;;;;15.85;11.63;;;;;;;13.60;100.00;99229.31;5091608;28;20277;-76
2021/10/20 05:03:36;;;;;;;14.00;11.05;;;;;;;13.71;99.65;99223.94;5081713;28;20201;-75
2021/10/20 05:06:05;;;;;;;13.68;12.27;;;;;;;13.65;99.79;99227.09;5085539;28;20193;-75
2021/10/20 05:08:31;;;;;;;15.10;12.18;;;;;;;13.53;100.00;99229.78;5089990;28;20293;-75
2021/10/20 05:10:58;;;;;;;14.68;12.75;;;;;;;13.58;100.00;99217.75;5091732;28;20201;-76
2021/10/20 05:13:25;;;;;;;11.52;10.32;;;;;;;13.53;100.00;99226.22;5093332;28;20197;-76
2021/10/20 05:15:51;;;;;;;19.20;12.98;;;;;;;13.48;100.00;99217.59;5086812;28;20190;-75
2021/10/20 05:18:18;;;;;;;16.42;12.68;;;;;;;13.61;100.00;99220.19;5092671;28;20205;-76
2021/10/20 05:20:45;;;;;;;16.27;12.80;;;;;;;13.53;100.00;99216.25;5091642;28;20190;-78
2021/10/20 05:23:13;;;;;;;15.25;12.48;;;;;;;13.54;100.00;99215.28;5092761;28;20623;-75
2021/10/20 05:25:39;;;;;;;16.35;14.10;;;;;;;13.38;100.00;99212.00;5088675;28;20200;-76
2021/10/20 05:28:07;;;;;;;16.73;13.88;;;;;;;13.54;100.00;99217.09;5089220;28;20219;-76
2021/10/20 05:30:34;;;;;;;17.58;13.07;;;;;;;13.65;100.00;99209.03;5091967;28;20228;-77
2021/10/20 05:33:01;;;;;;;13.68;12.25;;;;;;;13.84;100.00;99216.59;5091878;28;20631;-77
2021/10/20 05:35:28;;;;;;;17.55;13.38;;;;;;;13.93;100.00;99210.47;5082183;28;20203;-77
2021/10/20 05:37:54;;;;;;;19.40;13.93;;;;;;;13.92;100.00;99199.75;5089638;28;20204;-77
2021/10/20 05:40:24;;;;;;;14.35;12.88;;;;;;;14.15;99.95;99215.03;5090135;28;20197;-76
2021/10/20 05:42:51;;;;;;;15.70;13.40;;;;;;;14.23;99.17;99203.63;5089541;28;20279;-77
2021/10/20 05:45:18;;;;;;;15.00;11.95;;;;;;;14.27;98.70;99199.69;5092117;28;20207;-77
2021/10/20 05:47:44;;;;;;;15.73;11.95;;;;;;;14.24;98.93;99189.06;5091247;28;20206;-76
2021/10/20 05:50:11;;;;;;;13.85;12.07;;;;;;;14.26;98.38;99170.00;5086939;28;20297;-76
2021/10/20 05:52:38;;;;;;;14.40;11.73;;;;;;;14.26;98.52;99165.44;5088758;28;20297;-75
2021/10/20 05:55:05;;;;;;;13.10;11.80;;;;;;;14.33;98.19;99160.41;5092086;28;20274;-76
2021/10/20 05:57:36;;;;;;;13.20;11.30;;;;;;;14.23;99.20;99165.72;5092075;28;20190;-76
2021/10/20 06:00:03;;;;;;;14.73;11.25;;;;;;;14.38;98.27;99166.28;5090472;28;20307;-74
2021/10/20 06:02:29;;;;;;;12.63;11.38;;;;;;;14.39;97.81;99160.78;5087553;28;20184;-75
2021/10/20 06:04:56;;;;;;;17.52;13.05;;;;;;;14.34;98.44;99165.72;5092761;28;20594;-75
2021/10/20 06:07:23;;;;;;;13.48;11.45;;;;;;;14.42;97.91;99167.78;5092403;28;20184;-75
2021/10/20 06:09:50;;;;;;;14.40;10.80;;;;;;;14.36;98.58;99162.88;5090145;28;20681;-76
2021/10/20 06:12:16;;;;;;;14.05;12.20;;;;;;;14.34;99.17;99160.28;5091194;28;20295;-76
2021/10/20 06:14:44;;;;;;;12.45;11.15;;;;;;;14.24;100.00;99150.31;5091867;28;20541;-74
2021/10/20 06:17:11;;;;;;;13.27;11.85;;;;;;;14.25;100.00;99152.06;5090902;28;20194;-75
2021/10/20 06:19:37;;;;;;;13.00;11.60;;;;;;;14.39;99.62;99139.09;5088620;28;20578;-74
2021/10/20 06:22:04;;;;;;;15.13;12.50;;;;;;;14.50;99.11;99145.50;5088019;28;20200;-75
2021/10/20 06:24:31;;;;;;;14.65;11.93;;;;;;;14.46;99.55;99136.75;5090611;28;20208;-75
2021/10/20 06:26:57;;;;;;;13.38;11.82;;;;;;;14.66;97.76;99134.31;5091353;28;20194;-74
2021/10/20 06:29:26;;;;;;;15.45;12.45;;;;;;;14.66;97.81;99131.59;5087387;28;20299;-75
2021/10/20 06:31:54;;;;;;;13.40;11.98;;;;;;;14.94;95.31;99130.16;5081623;28;20202;-76
2021/10/20 06:34:21;;;;;;;14.48;12.20;;;;;;;14.94;94.65;99141.00;5091358;28;20219;-75
2021/10/20 06:36:48;;;;;;;13.38;10.75;;;;;;;14.97;94.66;99140.75;5091704;28;20604;-75
2021/10/20 06:39:20;;;;;;;12.93;10.25;;;;;;;14.98;94.44;99146.03;5091573;28;20188;-75
2021/10/20 06:41:47;;;;;;;11.75;10.50;;;;;;;15.04;94.15;99136.53;5095596;28;20204;-76
2021/10/20 06:44:14;;;;;;;13.68;11.25;;;;;;;15.14;93.26;99139.31;5091453;28;20635;-76
2021/10/20 06:46:41;;;;;;;13.52;10.52;;;;;;;15.20;92.96;99145.09;5091347;28;20637;-76
2021/10/20 06:49:09;;;;;;;14.55;11.13;;;;;;;15.26;92.55;99153.69;5091285;28;20211;-76
2021/10/20 06:51:35;;;;;;;13.30;11.43;;;;;;;15.29;91.85;99157.03;5093603;28;20193;-76
2021/10/20 06:54:02;;;;;;;14.07;11.27;;;;;;;15.35;91.80;99152.91;5093809;28;20331;-76
2021/10/20 06:56:29;;;;;;;12.60;11.30;;;;;;;15.44;91.03;99149.41;5093326;28;20282;-75
2021/10/20 06:58:55;;;;;;;12.40;11.10;;;;;;;15.50;90.73;99146.19;5092857;28;20188;-76
2021/10/20 07:01:22;;;;;;;12.05;10.30;;;;;;;15.44;90.64;99154.84;5094025;28;20188;-76
2021/10/20 07:03:49;;;;;;;14.70;11.70;;;;;;;15.42;91.59;99162.25;5098141;28;20237;-75
2021/10/20 07:06:17;;;;;;;15.25;11.25;;;;;;;15.44;90.78;99168.41;5081709;28;20184;-76
2021/10/20 07:08:43;;;;;;;11.65;9.95;;;;;;;15.61;90.18;99164.25;5092030;28;20191;-76
2021/10/20 07:11:10;;;;;;;13.05;10.55;;;;;;;15.63;89.66;99173.97;5095946;28;20287;-76
2021/10/20 07:13:36;;;;;;;14.93;10.52;;;;;;;15.72;89.27;99166.94;5081141;28;20207;-76
2021/10/20 07:16:03;;;;;;;12.48;9.60;;;;;;;15.78;88.92;99163.72;5075466;28;20736;-75
2021/10/20 07:18:31;;;;;;;13.02;10.35;;;;;;;15.74;88.93;99173.09;5075284;28;20639;-76
2021/10/20 07:20:58;;;;;;;13.93;10.35;;;;;;;15.83;88.93;99163.31;5084044;28;20551;-76
2021/10/20 07:23:26;;;;;;;11.68;10.48;;;;;;;15.64;90.53;99158.56;5085345;28;20191;-76
2021/10/20 07:25:53;;;;;;;12.00;10.75;;;;;;;15.79;89.60;99156.41;5094933;28;20641;-77
2021/10/20 07:28:20;;;;;;;12.38;10.13;;;;;;;15.93;88.70;99166.06;5089067;28;20317;-76
2021/10/20 07:30:46;;;;;;;12.50;10.95;;;;;;;15.88;89.28;99155.63;5083483;28;20214;-76
2021/10/20 07:33:13;;;;;;;12.80;10.40;;;;;;;16.09;88.28;99152.88;5093608;28;20307;-76
2021/10/20 07:35:39;;;;;;;10.93;9.75;;;;;;;16.10;87.99;99138.31;5094641;28;20239;-76
2021/10/20 07:38:06;;;;;;;12.68;10.00;;;;;;;16.13;87.55;99138.03;5095354;28;20551;-76
2021/10/20 07:40:34;;;;;;;10.10;9.02;;;;;;;16.19;87.46;99117.59;5095333;28;20629;-75
2021/10/20 07:43:01;;;;;;;12.85;10.07;;;;;;;16.15;87.49;99108.88;5095565;28;20548;-76
2021/10/20 07:45:28;;;;;;;11.68;10.48;;;;;;;16.16;87.43;99104.28;5095061;28;20206;-77
2021/10/20 07:47:54;;;;;;;10.48;9.27;;;;;;;16.16;87.67;99101.59;5092943;28;20283;-75
2021/10/20 07:50:23;;;;;;;11.18;9.55;;;;;;;16.24;87.40;99085.47;5079515;28;20577;-75
2021/10/20 07:52:51;;;;;;;10.90;9.27;;;;;;;16.25;87.54;99081.75;5074821;28;20279;-75
2021/10/20 07:55:19;;;;;;;10.70;9.70;;;;;;;16.30;87.41;99100.34;5091552;28;20212;-75
2021/10/20 07:57:47;;;;;;;9.60;8.55;;;;;;;16.26;87.94;99107.94;5095187;28;20235;-76
2021/10/20 08:00:16;;;;;;;10.88;9.13;;;;;;;16.44;87.10;99094.53;5094076;28;20185;-76
2021/10/20 08:02:42;;;;;;;12.30;9.63;;;;;;;16.54;86.63;99094.56;5103226;28;20194;-76
2021/10/20 08:05:11;;;;;;;10.45;9.35;;;;;;;16.52;86.65;99080.25;5100187;28;20222;-76
2021/10/20 08:07:43;;;;;;;10.40;9.30;;;;;;;16.63;86.33;99083.69;5094770;28;20299;-75
2021/10/20 08:10:10;;;;;;;14.38;10.95;;;;;;;16.75;85.67;99084.44;5094545;28;20534;-75
2021/10/20 08:12:37;;;;;;;10.90;9.52;;;;;;;16.78;85.10;99086.88;5094689;28;20205;-75
2021/10/20 08:15:07;;;;;;;10.45;9.07;;;;;;;16.95;84.51;99074.47;5093865;28;20188;-76
2021/10/20 08:17:33;;;;;;;12.93;9.13;;;;;;;17.06;83.62;99081.63;5093879;28;20204;-75
2021/10/20 08:20:00;;;;;;;9.45;8.55;;;;;;;17.18;82.85;99076.91;5092808;28;20204;-75
2021/10/20 08:22:27;;;;;;;9.68;8.32;;;;;;;17.12;83.16;99080.19;5092507;28;20195;-74
2021/10/20 08:24:55;;;;;;;11.60;8.80;;;;;;;17.10;83.67;99072.19;5086478;28;20199;-75
2021/10/20 08:27:22;;;;;;;10.55;8.65;;;;;;;17.29;83.27;99076.75;5073851;28;20288;-75
2021/10/20 08:29:48;;;;;;;10.48;8.50;;;;;;;17.47;81.60;99077.72;5072498;28;20224;-75
2021/10/20 08:32:16;;;;;;;9.90;8.93;;;;;;;17.44;82.03;99080.75;5077839;28;20644;-75
2021/10/20 08:34:43;;;;;;;9.02;8.13;;;;;;;17.40;82.16;99071.16;5093380;28;20201;-75
2021/10/20 08:37:09;;;;;;;9.50;8.40;;;;;;;17.25;82.36;99070.75;5091184;28;20200;-74
2021/10/20 08:39:36;;;;;;;11.35;8.50;;;;;;;17.52;82.38;99058.22;5093739;28;20206;-75
2021/10/20 08:42:05;;;;;;;10.70;8.60;;;;;;;17.43;82.76;99062.69;5081569;28;20351;-76
2021/10/20 08:44:33;;;;;;;9.02;8.13;;;;;;;17.73;81.00;99068.94;5073698;28;20647;-76
2021/10/20 08:47:00;;;;;;;17.45;8.75;;;;;;;17.75;80.23;99066.06;5074882;28;20202;-76
2021/10/20 08:49:30;;;;;;;10.30;9.20;;;;;;;17.86;79.62;99057.72;5085025;28;20281;-76
2021/10/20 08:51:57;;;;;;;9.73;7.95;;;;;;;18.09;79.23;99063.66;5093746;28;20558;-75
2021/10/20 08:54:24;;;;;;;8.30;7.45;;;;;;;18.36;77.39;99057.38;5084751;28;20545;-75
2021/10/20 08:56:50;;;;;;;11.82;9.13;;;;;;;18.41;77.39;99051.47;5093542;28;20199;-75
2021/10/20 08:59:18;;;;;;;8.15;7.25;;;;;;;18.72;75.69;99054.69;5094115;28;20605;-75
2021/10/20 09:01:45;;;;;;;8.30;7.38;;;;;;;18.73;75.95;99040.06;5093602;28;20190;-75
2021/10/20 09:04:12;;;;;;;11.48;7.50;;;;;;;18.67;75.67;99033.34;5075682;28;20200;-75
2021/10/20 09:06:40;;;;;;;8.93;8.10;;;;;;;18.59;76.26;99037.84;5086698;28;20203;-76
2021/10/20 09:09:07;;;;;;;8.05;7.25;;;;;;;18.56;76.20;99039.00;5088072;28;20619;-76
2021/10/20 09:11:35;;;;;;;7.80;7.00;;;;;;;18.40;76.81;99034.25;5093432;28;20226;-76
2021/10/20 09:14:03;;;;;;;8.75;7.45;;;;;;;18.31;77.91;99035.16;5092662;28;20183;-77
2021/10/20 09:16:31;;;;;;;10.60;7.60;;;;;;;18.33;77.55;99036.72;5093506;28;20196;-75
2021/10/20 09:18:58;;;;;;;8.13;6.70;;;;;;;18.11;77.70;99042.56;5093163;28;20200;-76
2021/10/20 09:21:26;;;;;;;9.40;7.30;;;;;;;17.98;79.08;99032.03;5090310;28;20191;-76
2021/10/20 09:23:55;;;;;;;10.85;8.35;;;;;;;18.01;79.05;99018.13;5090621;28;20191;-76
2021/10/20 09:26:28;;;;;;;11.95;8.32;;;;;;;17.96;78.96;99023.16;5094538;28;20665;-74
2021/10/20 09:28:55;;;;;;;8.35;7.55;;;;;;;17.94;79.45;99022.44;5088729;28;20328;-75
2021/10/20 09:31:22;;;;;;;8.98;7.72;;;;;;;17.91;79.73;99023.63;5092759;28;20597;-76
2021/10/20 09:33:49;;;;;;;8.57;7.65;;;;;;;17.84;79.90;99025.22;5093125;28;20209;-76
2021/10/20 09:36:17;;;;;;;9.85;7.97;;;;;;;17.77;80.45;99009.59;5093378;28;20196;-76
2021/10/20 09:38:48;;;;;;;8.93;6.82;;;;;;;17.79;80.91;99018.47;5092832;28;20212;-75
2021/10/20 09:41:17;;;;;;;8.82;7.15;;;;;;;17.97;79.66;99010.41;5092916;28;20193;-75
2021/10/20 09:43:52;;;;;;;9.43;8.18;;;;;;;18.03;79.45;99021.53;5074336;28;20643;-75
2021/10/20 09:46:30;;;;;;;11.65;6.95;;;;;;;17.95;79.33;99015.97;5083042;28;20185;-75
2021/10/20 09:49:04;;;;;;;9.40;7.15;;;;;;;18.09;79.29;99012.78;5093085;28;20539;-76
2021/10/20 09:51:38;;;;;;;10.93;7.50;;;;;;;17.96;79.57;99012.28;5092312;28;20206;-75
2021/10/20 09:54:20;;;;;;;8.43;7.50;;;;;;;18.09;79.19;99007.34;5087702;28;20187;-75
2021/10/20 09:56:52;;;;;;;7.50;6.80;;;;;;;18.09;78.54;99006.44;5073009;28;20191;-76
2021/10/20 09:59:19;;;;;;;9.75;8.13;;;;;;;18.04;78.93;99008.78;5090340;28;20551;-76
2021/10/20 10:01:46;;;;;;;7.43;6.63;;;;;;;17.87;79.51;98989.50;5079257;28;20290;-75
2021/10/20 10:04:13;;;;;;;8.13;7.43;;;;;;;17.92;80.04;98986.34;5096072;28;20201;-75
2021/10/20 10:06:40;;;;;;;8.90;8.00;;;;;;;17.98;79.79;98974.84;5094987;28;20275;-75
2021/10/20 10:09:07;;;;;;;8.40;7.70;;;;;;;18.01;79.82;98976.41;5089905;28;20590;-75
2021/10/20 10:11:35;;;;;;;8.40;7.60;;;;;;;18.02;79.58;98975.38;5086718;28;20226;-75
2021/10/20 10:14:06;;;;;;;10.68;8.45;;;;;;;17.93;80.48;98966.25;5077721;28;20271;-76
2021/10/20 10:16:34;;;;;;;8.85;8.02;;;;;;;18.10;79.33;98972.75;5091369;28;20284;-76
2021/10/20 10:19:02;;;;;;;9.70;8.75;;;;;;;18.14;78.86;98960.56;5076745;28;20282;-76
2021/10/20 10:21:31;;;;;;;8.50;7.68;;;;;;;18.15;79.12;98961.41;5072016;28;20683;-75
2021/10/20 10:23:59;;;;;;;15.93;12.98;;;;;;;18.15;78.93;98969.59;5076606;28;20208;-75
2021/10/20 10:26:26;;;;;;;10.80;7.65;;;;;;;18.18;78.57;98959.25;5081943;28;20287;-75
2021/10/20 10:29:10;;;;;;;9.35;7.80;;;;;;;18.06;78.80;98966.75;5086776;28;20306;-76
2021/10/20 10:31:40;;;;;;;9.23;8.25;;;;;;;18.11;79.15;98960.84;5096187;28;20532;-77
2021/10/20 10:34:07;;;;;;;11.27;8.40;;;;;;;18.07;79.62;98949.41;5091801;28;20278;-73
2021/10/20 10:36:34;;;;;;;12.10;7.60;;;;;;;18.17;78.98;98938.44;5101397;28;20205;-73
2021/10/20 10:39:07;;;;;;;7.40;6.70;;;;;;;18.23;78.60;98929.66;5095523;28;20515;-72
2021/10/20 10:41:41;;;;;;;6.93;6.32;;;;;;;18.16;78.65;98933.16;5093946;28;20190;-73
2021/10/20 10:44:15;;;;;;;10.52;7.53;;;;;;;18.11;79.12;98931.75;5095316;28;20224;-73
2021/10/20 10:46:54;;;;;;;8.07;6.60;;;;;;;17.98;79.76;98925.81;5086599;28;20193;-72
2021/10/20 10:49:24;;;;;;;13.95;7.72;;;;;;;17.98;79.97;98928.53;5091775;28;20709;-72
2021/10/20 10:52:34;;;;;;;8.65;7.75;;;;;;;17.98;79.79;98941.31;5094753;28;20223;-73
2021/10/20 10:55:13;;;;;;;8.93;7.78;;;;;;;17.81;81.21;98930.19;5094659;28;20194;-73
2021/10/20 10:57:46;;;;;;;9.52;7.65;;;;;;;17.96;80.88;98935.16;5095229;28;20246;-74
2021/10/20 11:00:42;;;;;;;8.60;7.70;;;;;;;18.16;79.18;98908.63;5094940;28;20201;-72
2021/10/20 11:03:26;;;;;;;8.55;6.70;;;;;;;18.35;78.41;98897.59;5073014;28;20624;-73
2021/10/20 11:05:58;;;;;;;10.70;7.88;;;;;;;18.41;77.94;98913.31;5091103;28;20226;-73
2021/10/20 11:08:26;;;;;;;7.80;7.10;;;;;;;18.40;77.82;98908.03;5094561;28;20228;-74
2021/10/20 11:10:53;;;;;;;9.15;7.30;;;;;;;18.36;78.07;98914.78;5084846;28;20221;-73
2021/10/20 11:13:20;;;;;;;7.70;7.00;;;;;;;18.24;78.66;98916.91;5093209;28;20278;-73
2021/10/20 11:15:49;;;;;;;11.23;6.95;;;;;;;17.96;80.17;98911.50;5093195;28;20286;-73
2021/10/20 11:18:16;;;;;;;8.40;7.55;;;;;;;18.12;79.80;98903.50;5093777;28;20612;-74
2021/10/20 11:20:45;;;;;;;8.07;6.90;;;;;;;18.21;79.58;98892.69;5094089;28;20204;-74
2021/10/20 11:23:15;;;;;;;10.82;7.07;;;;;;;18.62;77.77;98893.06;5089328;28;20201;-74
2021/10/20 11:25:44;;;;;;;7.93;7.05;;;;;;;18.90;75.67;98878.31;5082913;28;20202;-73
2021/10/20 11:28:10;;;;;;;11.95;7.70;;;;;;;19.17;74.52;98879.16;5077400;28;20238;-74